sensor_id;sensor_type;location;lat;lon;timestamp;temperature;humidity
53045;DHT22;38930;52.766;6.884;2023-04-03T00:01:24;2.50;99.90
53045;DHT22;38930;52.766;6.884;2023-04-03T00:03:50;2.50;99.90
53045;DHT22;38930;52.766;6.884;2023-04-03T00:06:17;2.50;99.90
53045;DHT22;38930;52.766;6.884;2023-04-03T00:08:43;2.50;99.90
53045;DHT22;38930;52.766;6.884;2023-04-03T00:11:09;2.50;99.90
53045;DHT22;38930;52.766;6.884;2023-04-03T00:13:35;2.40;99.90
53045;DHT22;38930;52.766;6.884;2023-04-03T00:16:01;2.40;99.90
53045;DHT22;38930;52.766;6.884;2023-04-03T00:18:27;2.40;99.90
53045;DHT22;38930;52.766;6.884;2023-04-03T00:20:52;2.30;99.90
53045;DHT22;38930;52.766;6.884;2023-04-03T00:23:18;2.30;99.90
53045;DHT22;38930;52.766;6.884;2023-04-03T00:25:44;2.30;99.90
53045;DHT22;38930;52.766;6.884;2023-04-03T00:28:10;2.30;99.90
53045;DHT22;38930;52.766;6.884;2023-04-03T00:30:35;2.60;99.90
53045;DHT22;38930;52.766;6.884;2023-04-03T00:33:01;2.30;99.90
53045;DHT22;38930;52.766;6.884;2023-04-03T00:35:28;2.20;99.90
53045;DHT22;38930;52.766;6.884;2023-04-03T00:37:54;2.20;99.90
53045;DHT22;38930;52.766;6.884;2023-04-03T00:40:22;2.20;99.90
53045;DHT22;38930;52.766;6.884;2023-04-03T00:42:51;2.10;99.90
53045;DHT22;38930;52.766;6.884;2023-04-03T00:45:22;2.10;99.90
53045;DHT22;38930;52.766;6.884;2023-04-03T00:47:48;2.10;99.90
53045;DHT22;38930;52.766;6.884;2023-04-03T00:50:14;2.00;99.90
53045;DHT22;38930;52.766;6.884;2023-04-03T00:52:40;2.00;99.90
53045;DHT22;38930;52.766;6.884;2023-04-03T00:55:08;2.00;99.90
53045;DHT22;38930;52.766;6.884;2023-04-03T00:57:34;1.90;99.90
53045;DHT22;38930;52.766;6.884;2023-04-03T01:00:12;1.90;99.90
53045;DHT22;38930;52.766;6.884;2023-04-03T01:02:39;1.90;99.90
53045;DHT22;38930;52.766;6.884;2023-04-03T01:05:07;2.70;99.90
53045;DHT22;38930;52.766;6.884;2023-04-03T01:07:33;1.90;99.90
53045;DHT22;38930;52.766;6.884;2023-04-03T01:10:04;1.90;99.90
53045;DHT22;38930;52.766;6.884;2023-04-03T01:12:34;1.90;99.90
53045;DHT22;38930;52.766;6.884;2023-04-03T01:15:04;1.90;99.90
53045;DHT22;38930;52.766;6.884;2023-04-03T01:25:31;1.70;99.90
53045;DHT22;38930;52.766;6.884;2023-04-03T01:27:57;1.70;99.90
53045;DHT22;38930;52.766;6.884;2023-04-03T01:30:28;1.70;99.90
53045;DHT22;38930;52.766;6.884;2023-04-03T01:32:56;1.70;99.90
53045;DHT22;38930;52.766;6.884;2023-04-03T01:35:21;2.60;99.90
53045;DHT22;38930;52.766;6.884;2023-04-03T01:37:47;1.70;99.90
53045;DHT22;38930;52.766;6.884;2023-04-03T01:40:12;1.70;99.90
53045;DHT22;38930;52.766;6.884;2023-04-03T01:42:38;1.60;99.90
53045;DHT22;38930;52.766;6.884;2023-04-03T01:45:04;1.60;99.90
53045;DHT22;38930;52.766;6.884;2023-04-03T01:47:30;1.60;99.90
53045;DHT22;38930;52.766;6.884;2023-04-03T01:49:56;1.50;99.90
53045;DHT22;38930;52.766;6.884;2023-04-03T01:52:21;1.60;99.90
53045;DHT22;38930;52.766;6.884;2023-04-03T01:54:47;1.50;99.90
53045;DHT22;38930;52.766;6.884;2023-04-03T01:57:12;1.50;99.90
53045;DHT22;38930;52.766;6.884;2023-04-03T01:59:40;2.50;99.90
53045;DHT22;38930;52.766;6.884;2023-04-03T02:02:06;1.40;99.90
53045;DHT22;38930;52.766;6.884;2023-04-03T02:04:32;1.40;99.90
53045;DHT22;38930;52.766;6.884;2023-04-03T02:06:58;1.40;99.90
53045;DHT22;38930;52.766;6.884;2023-04-03T02:09:24;1.40;99.90
53045;DHT22;38930;52.766;6.884;2023-04-03T02:11:49;1.40;99.90
53045;DHT22;38930;52.766;6.884;2023-04-03T02:14:15;1.30;99.90
53045;DHT22;38930;52.766;6.884;2023-04-03T02:16:41;1.30;99.90
53045;DHT22;38930;52.766;6.884;2023-04-03T02:19:06;1.30;99.90
53045;DHT22;38930;52.766;6.884;2023-04-03T02:21:32;1.30;99.90
53045;DHT22;38930;52.766;6.884;2023-04-03T02:23:58;1.20;99.90
53045;DHT22;38930;52.766;6.884;2023-04-03T02:26:23;1.20;99.90
53045;DHT22;38930;52.766;6.884;2023-04-03T02:28:50;1.20;99.90
53045;DHT22;38930;52.766;6.884;2023-04-03T02:31:15;1.20;99.90
53045;DHT22;38930;52.766;6.884;2023-04-03T02:33:41;1.10;99.90
53045;DHT22;38930;52.766;6.884;2023-04-03T02:36:07;1.10;99.90
53045;DHT22;38930;52.766;6.884;2023-04-03T02:38:33;1.10;99.90
53045;DHT22;38930;52.766;6.884;2023-04-03T02:41:04;1.10;99.90
53045;DHT22;38930;52.766;6.884;2023-04-03T02:43:30;1.10;99.90
53045;DHT22;38930;52.766;6.884;2023-04-03T02:45:56;1.00;99.90
53045;DHT22;38930;52.766;6.884;2023-04-03T02:48:22;1.00;99.90
53045;DHT22;38930;52.766;6.884;2023-04-03T02:50:48;1.00;99.90
53045;DHT22;38930;52.766;6.884;2023-04-03T02:53:13;1.00;99.90
53045;DHT22;38930;52.766;6.884;2023-04-03T02:55:40;1.00;99.90
53045;DHT22;38930;52.766;6.884;2023-04-03T02:58:06;1.00;99.90
53045;DHT22;38930;52.766;6.884;2023-04-03T03:00:32;1.40;99.90
53045;DHT22;38930;52.766;6.884;2023-04-03T03:02:57;0.90;99.90
53045;DHT22;38930;52.766;6.884;2023-04-03T03:05:23;0.90;99.90
53045;DHT22;38930;52.766;6.884;2023-04-03T03:07:48;0.90;99.90
53045;DHT22;38930;52.766;6.884;2023-04-03T03:10:14;0.80;99.90
53045;DHT22;38930;52.766;6.884;2023-04-03T03:12:40;0.80;99.90
53045;DHT22;38930;52.766;6.884;2023-04-03T03:15:06;0.80;99.90
53045;DHT22;38930;52.766;6.884;2023-04-03T03:17:33;0.70;99.90
53045;DHT22;38930;52.766;6.884;2023-04-03T03:19:58;0.70;99.90
53045;DHT22;38930;52.766;6.884;2023-04-03T03:22:26;0.70;99.90
53045;DHT22;38930;52.766;6.884;2023-04-03T03:24:52;0.70;99.90
53045;DHT22;38930;52.766;6.884;2023-04-03T03:27:17;0.60;99.90
53045;DHT22;38930;52.766;6.884;2023-04-03T03:29:43;0.60;99.90
53045;DHT22;38930;52.766;6.884;2023-04-03T03:32:08;0.60;99.90
53045;DHT22;38930;52.766;6.884;2023-04-03T03:34:34;0.50;99.90
53045;DHT22;38930;52.766;6.884;2023-04-03T03:37:00;0.50;99.90
53045;DHT22;38930;52.766;6.884;2023-04-03T03:39:26;0.50;99.90
53045;DHT22;38930;52.766;6.884;2023-04-03T03:41:51;0.50;99.90
53045;DHT22;38930;52.766;6.884;2023-04-03T03:44:19;0.40;99.90
53045;DHT22;38930;52.766;6.884;2023-04-03T03:46:44;0.40;99.90
53045;DHT22;38930;52.766;6.884;2023-04-03T03:49:10;0.40;99.90
53045;DHT22;38930;52.766;6.884;2023-04-03T03:51:37;0.80;99.90
53045;DHT22;38930;52.766;6.884;2023-04-03T03:54:04;0.40;99.90
53045;DHT22;38930;52.766;6.884;2023-04-03T03:56:30;0.40;99.90
53045;DHT22;38930;52.766;6.884;2023-04-03T03:58:55;1.10;99.90
53045;DHT22;38930;52.766;6.884;2023-04-03T04:01:25;0.40;99.90
53045;DHT22;38930;52.766;6.884;2023-04-03T04:03:50;0.30;99.90
53045;DHT22;38930;52.766;6.884;2023-04-03T04:06:16;0.20;99.90
53045;DHT22;38930;52.766;6.884;2023-04-03T04:08:42;0.20;99.90
53045;DHT22;38930;52.766;6.884;2023-04-03T04:11:08;0.10;99.90
53045;DHT22;38930;52.766;6.884;2023-04-03T04:13:34;0.10;99.90
53045;DHT22;38930;52.766;6.884;2023-04-03T04:16:00;0.00;99.90
53045;DHT22;38930;52.766;6.884;2023-04-03T04:18:26;0.00;99.90
53045;DHT22;38930;52.766;6.884;2023-04-03T04:20:51;0.40;99.90
53045;DHT22;38930;52.766;6.884;2023-04-03T04:23:18;-0.10;99.90
53045;DHT22;38930;52.766;6.884;2023-04-03T04:25:45;-0.10;99.90
53045;DHT22;38930;52.766;6.884;2023-04-03T04:28:11;-0.20;99.90
53045;DHT22;38930;52.766;6.884;2023-04-03T04:30:37;-0.10;99.90
53045;DHT22;38930;52.766;6.884;2023-04-03T04:33:03;-0.10;99.90
53045;DHT22;38930;52.766;6.884;2023-04-03T04:35:28;-0.20;99.90
53045;DHT22;38930;52.766;6.884;2023-04-03T04:37:54;-0.20;99.90
53045;DHT22;38930;52.766;6.884;2023-04-03T04:40:20;0.10;99.90
53045;DHT22;38930;52.766;6.884;2023-04-03T04:42:46;-0.20;99.90
53045;DHT22;38930;52.766;6.884;2023-04-03T04:45:12;-0.20;99.90
53045;DHT22;38930;52.766;6.884;2023-04-03T04:47:37;-0.20;99.90
53045;DHT22;38930;52.766;6.884;2023-04-03T04:50:03;-0.20;99.90
53045;DHT22;38930;52.766;6.884;2023-04-03T04:52:29;-0.20;99.90
53045;DHT22;38930;52.766;6.884;2023-04-03T04:54:55;-0.30;99.90
53045;DHT22;38930;52.766;6.884;2023-04-03T04:57:21;-0.30;99.90
53045;DHT22;38930;52.766;6.884;2023-04-03T04:59:46;-0.30;99.90
53045;DHT22;38930;52.766;6.884;2023-04-03T05:02:12;0.10;99.90
53045;DHT22;38930;52.766;6.884;2023-04-03T05:04:38;-0.30;99.90
53045;DHT22;38930;52.766;6.884;2023-04-03T05:07:03;-0.30;99.90
53045;DHT22;38930;52.766;6.884;2023-04-03T05:09:29;-0.30;99.90
53045;DHT22;38930;52.766;6.884;2023-04-03T05:11:55;-0.10;99.90
53045;DHT22;38930;52.766;6.884;2023-04-03T05:14:21;-0.30;99.90
53045;DHT22;38930;52.766;6.884;2023-04-03T05:16:47;-0.30;99.90
53045;DHT22;38930;52.766;6.884;2023-04-03T05:19:13;-0.40;99.90
53045;DHT22;38930;52.766;6.884;2023-04-03T05:21:38;-0.40;99.90
53045;DHT22;38930;52.766;6.884;2023-04-03T05:24:04;0.00;99.90
53045;DHT22;38930;52.766;6.884;2023-04-03T05:26:31;-0.40;99.90
53045;DHT22;38930;52.766;6.884;2023-04-03T05:28:57;-0.40;99.90
53045;DHT22;38930;52.766;6.884;2023-04-03T05:31:23;-0.40;99.90
53045;DHT22;38930;52.766;6.884;2023-04-03T05:33:49;-0.40;99.90
53045;DHT22;38930;52.766;6.884;2023-04-03T05:36:15;-0.40;99.90
53045;DHT22;38930;52.766;6.884;2023-04-03T05:38:40;0.00;99.90
53045;DHT22;38930;52.766;6.884;2023-04-03T05:41:06;-0.20;99.90
53045;DHT22;38930;52.766;6.884;2023-04-03T05:43:32;1.00;99.90
53045;DHT22;38930;52.766;6.884;2023-04-03T05:45:58;-0.20;99.90
53045;DHT22;38930;52.766;6.884;2023-04-03T05:48:24;-0.10;99.90
53045;DHT22;38930;52.766;6.884;2023-04-03T05:50:51;-0.10;99.90
53045;DHT22;38930;52.766;6.884;2023-04-03T05:53:27;-0.10;99.90
53045;DHT22;38930;52.766;6.884;2023-04-03T05:55:54;0.00;99.90
53045;DHT22;38930;52.766;6.884;2023-04-03T05:58:20;0.00;99.90
53045;DHT22;38930;52.766;6.884;2023-04-03T06:00:45;0.10;99.90
53045;DHT22;38930;52.766;6.884;2023-04-03T06:03:11;0.10;99.90
53045;DHT22;38930;52.766;6.884;2023-04-03T06:05:37;0.10;99.90
53045;DHT22;38930;52.766;6.884;2023-04-03T06:08:02;0.20;99.90
53045;DHT22;38930;52.766;6.884;2023-04-03T06:10:28;0.50;99.90
53045;DHT22;38930;52.766;6.884;2023-04-03T06:12:54;0.20;99.90
53045;DHT22;38930;52.766;6.884;2023-04-03T06:15:20;0.20;99.90
53045;DHT22;38930;52.766;6.884;2023-04-03T06:17:46;0.20;99.90
53045;DHT22;38930;52.766;6.884;2023-04-03T06:20:12;0.30;99.90
53045;DHT22;38930;52.766;6.884;2023-04-03T06:22:38;0.30;99.90
53045;DHT22;38930;52.766;6.884;2023-04-03T06:25:04;0.40;99.90
53045;DHT22;38930;52.766;6.884;2023-04-03T06:27:30;0.50;99.90
53045;DHT22;38930;52.766;6.884;2023-04-03T06:29:56;0.70;99.90
53045;DHT22;38930;52.766;6.884;2023-04-03T06:32:21;0.60;99.90
53045;DHT22;38930;52.766;6.884;2023-04-03T06:34:47;0.70;99.90
53045;DHT22;38930;52.766;6.884;2023-04-03T06:37:17;0.70;99.90
53045;DHT22;38930;52.766;6.884;2023-04-03T06:39:43;0.80;99.90
53045;DHT22;38930;52.766;6.884;2023-04-03T06:42:10;0.90;99.90
53045;DHT22;38930;52.766;6.884;2023-04-03T06:44:36;1.00;99.90
53045;DHT22;38930;52.766;6.884;2023-04-03T06:47:02;1.10;99.90
53045;DHT22;38930;52.766;6.884;2023-04-03T06:49:28;1.20;99.90
53045;DHT22;38930;52.766;6.884;2023-04-03T06:51:54;1.40;99.90
53045;DHT22;38930;52.766;6.884;2023-04-03T06:54:21;1.50;99.90
53045;DHT22;38930;52.766;6.884;2023-04-03T06:56:47;1.60;99.90
53045;DHT22;38930;52.766;6.884;2023-04-03T06:59:13;1.70;99.90
53045;DHT22;38930;52.766;6.884;2023-04-03T07:01:40;1.80;99.90
53045;DHT22;38930;52.766;6.884;2023-04-03T07:04:06;2.00;99.90
53045;DHT22;38930;52.766;6.884;2023-04-03T07:06:33;2.10;99.90
53045;DHT22;38930;52.766;6.884;2023-04-03T07:08:59;2.20;99.90
53045;DHT22;38930;52.766;6.884;2023-04-03T07:11:25;2.20;99.90
53045;DHT22;38930;52.766;6.884;2023-04-03T07:13:52;2.70;99.90
53045;DHT22;38930;52.766;6.884;2023-04-03T07:16:18;2.50;99.90
53045;DHT22;38930;52.766;6.884;2023-04-03T07:18:44;2.60;99.90
53045;DHT22;38930;52.766;6.884;2023-04-03T07:21:10;2.70;99.90
53045;DHT22;38930;52.766;6.884;2023-04-03T07:23:36;2.80;99.90
53045;DHT22;38930;52.766;6.884;2023-04-03T07:26:02;2.80;99.90
53045;DHT22;38930;52.766;6.884;2023-04-03T07:28:27;2.90;99.90
53045;DHT22;38930;52.766;6.884;2023-04-03T07:30:59;3.00;99.90
53045;DHT22;38930;52.766;6.884;2023-04-03T07:33:25;3.10;99.90
53045;DHT22;38930;52.766;6.884;2023-04-03T07:35:50;3.10;99.90
53045;DHT22;38930;52.766;6.884;2023-04-03T07:38:16;3.20;99.90
53045;DHT22;38930;52.766;6.884;2023-04-03T07:40:46;3.30;99.90
53045;DHT22;38930;52.766;6.884;2023-04-03T07:43:12;3.50;99.90
53045;DHT22;38930;52.766;6.884;2023-04-03T07:45:38;3.50;99.90
53045;DHT22;38930;52.766;6.884;2023-04-03T07:48:04;3.70;99.90
53045;DHT22;38930;52.766;6.884;2023-04-03T07:50:29;3.80;99.90
53045;DHT22;38930;52.766;6.884;2023-04-03T07:52:56;3.80;99.90
53045;DHT22;38930;52.766;6.884;2023-04-03T07:55:23;3.90;99.90
53045;DHT22;38930;52.766;6.884;2023-04-03T07:57:49;4.00;99.90
53045;DHT22;38930;52.766;6.884;2023-04-03T08:00:16;4.10;99.90
53045;DHT22;38930;52.766;6.884;2023-04-03T08:02:43;4.20;99.90
53045;DHT22;38930;52.766;6.884;2023-04-03T08:05:10;4.40;99.90
53045;DHT22;38930;52.766;6.884;2023-04-03T08:07:37;4.50;99.90
53045;DHT22;38930;52.766;6.884;2023-04-03T08:10:03;4.60;99.90
53045;DHT22;38930;52.766;6.884;2023-04-03T08:12:29;4.70;99.90
53045;DHT22;38930;52.766;6.884;2023-04-03T08:14:55;4.70;99.90
53045;DHT22;38930;52.766;6.884;2023-04-03T08:17:21;4.70;99.90
53045;DHT22;38930;52.766;6.884;2023-04-03T08:19:47;4.30;99.90
53045;DHT22;38930;52.766;6.884;2023-04-03T08:22:12;5.00;99.90
53045;DHT22;38930;52.766;6.884;2023-04-03T08:24:38;5.10;99.90
53045;DHT22;38930;52.766;6.884;2023-04-03T08:27:04;5.30;99.90
53045;DHT22;38930;52.766;6.884;2023-04-03T08:29:29;5.40;99.90
53045;DHT22;38930;52.766;6.884;2023-04-03T08:31:55;5.50;99.90
53045;DHT22;38930;52.766;6.884;2023-04-03T08:34:21;5.50;99.90
53045;DHT22;38930;52.766;6.884;2023-04-03T08:36:47;5.50;99.90
53045;DHT22;38930;52.766;6.884;2023-04-03T08:39:13;5.50;99.90
53045;DHT22;38930;52.766;6.884;2023-04-03T08:41:40;5.60;99.90
53045;DHT22;38930;52.766;6.884;2023-04-03T08:46:54;5.90;99.90
53045;DHT22;38930;52.766;6.884;2023-04-03T08:49:29;6.60;99.90
53045;DHT22;38930;52.766;6.884;2023-04-03T08:51:57;6.00;99.90
53045;DHT22;38930;52.766;6.884;2023-04-03T08:54:32;6.00;99.90
53045;DHT22;38930;52.766;6.884;2023-04-03T08:57:00;6.60;99.90
53045;DHT22;38930;52.766;6.884;2023-04-03T08:59:31;6.10;99.90
53045;DHT22;38930;52.766;6.884;2023-04-03T09:01:58;6.50;99.90
53045;DHT22;38930;52.766;6.884;2023-04-03T09:04:28;6.10;99.90
53045;DHT22;38930;52.766;6.884;2023-04-03T09:07:02;6.80;99.90
53045;DHT22;38930;52.766;6.884;2023-04-03T09:09:37;6.30;99.90
53045;DHT22;38930;52.766;6.884;2023-04-03T09:12:21;6.40;99.90
53045;DHT22;38930;52.766;6.884;2023-04-03T09:15:10;6.50;99.90
53045;DHT22;38930;52.766;6.884;2023-04-03T09:23:24;6.80;99.90
53045;DHT22;38930;52.766;6.884;2023-04-03T09:25:58;6.80;99.90
53045;DHT22;38930;52.766;6.884;2023-04-03T09:28:25;7.60;99.90
53045;DHT22;38930;52.766;6.884;2023-04-03T09:30:51;7.00;99.90
53045;DHT22;38930;52.766;6.884;2023-04-03T09:33:17;7.20;99.90
53045;DHT22;38930;52.766;6.884;2023-04-03T09:35:43;7.00;99.90
53045;DHT22;38930;52.766;6.884;2023-04-03T09:40:39;7.10;99.90
53045;DHT22;38930;52.766;6.884;2023-04-03T09:45:45;7.10;99.90
53045;DHT22;38930;52.766;6.884;2023-04-03T09:56:03;7.50;99.10
53045;DHT22;38930;52.766;6.884;2023-04-03T09:58:35;7.60;99.20
53045;DHT22;38930;52.766;6.884;2023-04-03T10:01:03;8.40;98.00
53045;DHT22;38930;52.766;6.884;2023-04-03T10:03:31;7.70;98.00
53045;DHT22;38930;52.766;6.884;2023-04-03T10:05:58;7.60;95.90
53045;DHT22;38930;52.766;6.884;2023-04-03T10:08:33;8.20;97.30
53045;DHT22;38930;52.766;6.884;2023-04-03T10:11:10;7.70;98.10
53045;DHT22;38930;52.766;6.884;2023-04-03T10:13:36;7.80;97.10
53045;DHT22;38930;52.766;6.884;2023-04-03T10:16:27;8.40;97.40
53045;DHT22;38930;52.766;6.884;2023-04-03T10:19:05;8.10;98.90
53045;DHT22;38930;52.766;6.884;2023-04-03T10:27:18;8.40;96.80
53045;DHT22;38930;52.766;6.884;2023-04-03T10:30:16;8.40;94.90
53045;DHT22;38930;52.766;6.884;2023-04-03T10:33:19;8.40;96.30
53045;DHT22;38930;52.766;6.884;2023-04-03T10:35:49;8.50;96.40
53045;DHT22;38930;52.766;6.884;2023-04-03T10:38:20;8.60;97.10
53045;DHT22;38930;52.766;6.884;2023-04-03T10:55:02;8.90;94.70
53045;DHT22;38930;52.766;6.884;2023-04-03T10:57:32;8.80;95.60
53045;DHT22;38930;52.766;6.884;2023-04-03T11:00:05;8.80;95.20
53045;DHT22;38930;52.766;6.884;2023-04-03T11:02:55;8.90;94.10
53045;DHT22;38930;52.766;6.884;2023-04-03T11:05:32;9.00;93.50
53045;DHT22;38930;52.766;6.884;2023-04-03T11:08:04;8.90;94.00
53045;DHT22;38930;52.766;6.884;2023-04-03T11:10:44;9.20;94.70
53045;DHT22;38930;52.766;6.884;2023-04-03T11:13:41;8.90;96.10
53045;DHT22;38930;52.766;6.884;2023-04-03T11:16:09;9.00;95.70
53045;DHT22;38930;52.766;6.884;2023-04-03T11:21:21;8.90;94.70
53045;DHT22;38930;52.766;6.884;2023-04-03T11:23:51;9.10;95.40
53045;DHT22;38930;52.766;6.884;2023-04-03T11:26:23;9.10;94.90
53045;DHT22;38930;52.766;6.884;2023-04-03T11:28:59;9.80;95.60
53045;DHT22;38930;52.766;6.884;2023-04-03T11:34:43;9.30;96.00
53045;DHT22;38930;52.766;6.884;2023-04-03T11:37:42;9.90;97.40
53045;DHT22;38930;52.766;6.884;2023-04-03T11:40:19;9.60;94.40
53045;DHT22;38930;52.766;6.884;2023-04-03T11:42:49;9.60;95.40
53045;DHT22;38930;52.766;6.884;2023-04-03T11:47:58;9.70;94.00
53045;DHT22;38930;52.766;6.884;2023-04-03T11:50:43;9.60;94.10
53045;DHT22;38930;52.766;6.884;2023-04-03T12:00:49;10.00;93.50
53045;DHT22;38930;52.766;6.884;2023-04-03T12:32:12;10.20;94.10
53045;DHT22;38930;52.766;6.884;2023-04-03T12:46:00;10.50;94.00
53045;DHT22;38930;52.766;6.884;2023-04-03T12:48:30;10.60;93.60
53045;DHT22;38930;52.766;6.884;2023-04-03T12:50:58;10.60;93.10
53045;DHT22;38930;52.766;6.884;2023-04-03T12:53:31;10.60;93.00
53045;DHT22;38930;52.766;6.884;2023-04-03T12:58:44;10.80;93.60
53045;DHT22;38930;52.766;6.884;2023-04-03T13:03:43;10.70;93.00
53045;DHT22;38930;52.766;6.884;2023-04-03T13:06:23;10.50;92.60
53045;DHT22;38930;52.766;6.884;2023-04-03T13:08:51;10.70;92.70
53045;DHT22;38930;52.766;6.884;2023-04-03T13:11:17;10.40;93.80
53045;DHT22;38930;52.766;6.884;2023-04-03T13:14:19;10.60;92.80
53045;DHT22;38930;52.766;6.884;2023-04-03T13:16:55;11.30;92.90
53045;DHT22;38930;52.766;6.884;2023-04-03T13:19:23;10.60;92.60
53045;DHT22;38930;52.766;6.884;2023-04-03T13:22:02;10.50;93.30
53045;DHT22;38930;52.766;6.884;2023-04-03T13:24:33;10.60;92.40
53045;DHT22;38930;52.766;6.884;2023-04-03T13:27:00;10.50;92.90
53045;DHT22;38930;52.766;6.884;2023-04-03T13:29:33;10.60;93.30
53045;DHT22;38930;52.766;6.884;2023-04-03T13:32:00;10.60;93.60
53045;DHT22;38930;52.766;6.884;2023-04-03T13:34:40;10.70;91.90
53045;DHT22;38930;52.766;6.884;2023-04-03T13:37:07;10.70;93.30
53045;DHT22;38930;52.766;6.884;2023-04-03T13:39:34;10.60;92.80
53045;DHT22;38930;52.766;6.884;2023-04-03T13:42:15;10.80;93.40
53045;DHT22;38930;52.766;6.884;2023-04-03T13:44:42;10.80;93.20
53045;DHT22;38930;52.766;6.884;2023-04-03T13:47:14;10.70;93.90
53045;DHT22;38930;52.766;6.884;2023-04-03T13:50:02;10.70;94.50
53045;DHT22;38930;52.766;6.884;2023-04-03T13:52:38;10.70;93.80
53045;DHT22;38930;52.766;6.884;2023-04-03T13:55:26;10.80;93.70
53045;DHT22;38930;52.766;6.884;2023-04-03T13:58:03;10.80;91.40
53045;DHT22;38930;52.766;6.884;2023-04-03T14:00:36;10.80;92.50
53045;DHT22;38930;52.766;6.884;2023-04-03T14:03:12;10.80;92.80
53045;DHT22;38930;52.766;6.884;2023-04-03T14:05:37;10.90;92.70
53045;DHT22;38930;52.766;6.884;2023-04-03T14:08:03;10.80;92.90
53045;DHT22;38930;52.766;6.884;2023-04-03T14:10:30;10.90;93.50
53045;DHT22;38930;52.766;6.884;2023-04-03T14:12:55;11.00;91.70
53045;DHT22;38930;52.766;6.884;2023-04-03T14:15:28;10.70;91.90
53045;DHT22;38930;52.766;6.884;2023-04-03T14:17:54;11.00;91.80
53045;DHT22;38930;52.766;6.884;2023-04-03T14:20:24;10.60;91.40
53045;DHT22;38930;52.766;6.884;2023-04-03T14:22:50;10.60;92.70
53045;DHT22;38930;52.766;6.884;2023-04-03T14:25:17;10.60;92.20
53045;DHT22;38930;52.766;6.884;2023-04-03T14:27:45;10.60;92.40
53045;DHT22;38930;52.766;6.884;2023-04-03T14:30:16;10.50;92.50
53045;DHT22;38930;52.766;6.884;2023-04-03T14:32:42;10.50;90.90
53045;DHT22;38930;52.766;6.884;2023-04-03T14:35:08;10.50;92.10
53045;DHT22;38930;52.766;6.884;2023-04-03T14:37:34;10.50;92.30
53045;DHT22;38930;52.766;6.884;2023-04-03T14:40:02;10.50;92.50
53045;DHT22;38930;52.766;6.884;2023-04-03T14:42:34;10.60;91.80
53045;DHT22;38930;52.766;6.884;2023-04-03T14:45:10;10.70;92.30
53045;DHT22;38930;52.766;6.884;2023-04-03T14:47:44;10.70;92.30
53045;DHT22;38930;52.766;6.884;2023-04-03T14:50:15;10.90;90.70
53045;DHT22;38930;52.766;6.884;2023-04-03T14:52:42;10.50;91.40
53045;DHT22;38930;52.766;6.884;2023-04-03T14:55:08;10.60;92.50
53045;DHT22;38930;52.766;6.884;2023-04-03T14:57:35;10.60;91.90
53045;DHT22;38930;52.766;6.884;2023-04-03T15:00:03;10.60;91.60
53045;DHT22;38930;52.766;6.884;2023-04-03T15:02:34;10.60;92.10
53045;DHT22;38930;52.766;6.884;2023-04-03T15:05:02;10.60;91.30
53045;DHT22;38930;52.766;6.884;2023-04-03T15:07:31;10.60;91.30
53045;DHT22;38930;52.766;6.884;2023-04-03T15:10:05;10.80;91.70
53045;DHT22;38930;52.766;6.884;2023-04-03T15:12:32;10.50;92.10
53045;DHT22;38930;52.766;6.884;2023-04-03T15:14:57;10.50;91.70
53045;DHT22;38930;52.766;6.884;2023-04-03T15:17:23;10.50;90.90
53045;DHT22;38930;52.766;6.884;2023-04-03T15:19:49;10.50;91.20
53045;DHT22;38930;52.766;6.884;2023-04-03T15:22:19;11.10;91.90
53045;DHT22;38930;52.766;6.884;2023-04-03T15:24:45;10.50;91.80
53045;DHT22;38930;52.766;6.884;2023-04-03T15:27:12;10.40;90.90
53045;DHT22;38930;52.766;6.884;2023-04-03T15:29:38;10.40;90.80
53045;DHT22;38930;52.766;6.884;2023-04-03T15:32:05;10.30;90.70
53045;DHT22;38930;52.766;6.884;2023-04-03T15:34:31;10.30;91.50
53045;DHT22;38930;52.766;6.884;2023-04-03T15:36:57;10.30;91.00
53045;DHT22;38930;52.766;6.884;2023-04-03T15:39:25;10.20;91.00
53045;DHT22;38930;52.766;6.884;2023-04-03T15:41:51;10.20;90.30
53045;DHT22;38930;52.766;6.884;2023-04-03T15:44:17;10.10;90.60
53045;DHT22;38930;52.766;6.884;2023-04-03T15:46:45;10.10;91.30
53045;DHT22;38930;52.766;6.884;2023-04-03T15:49:12;10.10;91.20
53045;DHT22;38930;52.766;6.884;2023-04-03T15:51:37;10.10;91.40
53045;DHT22;38930;52.766;6.884;2023-04-03T15:54:03;9.90;91.50
53045;DHT22;38930;52.766;6.884;2023-04-03T15:56:29;9.90;91.80
53045;DHT22;38930;52.766;6.884;2023-04-03T15:58:54;9.90;91.70
53045;DHT22;38930;52.766;6.884;2023-04-03T16:01:20;9.90;91.70
53045;DHT22;38930;52.766;6.884;2023-04-03T16:03:46;9.80;91.20
53045;DHT22;38930;52.766;6.884;2023-04-03T16:06:18;10.00;91.70
53045;DHT22;38930;52.766;6.884;2023-04-03T16:08:46;9.70;91.30
53045;DHT22;38930;52.766;6.884;2023-04-03T16:11:13;9.70;91.60
53045;DHT22;38930;52.766;6.884;2023-04-03T16:13:38;9.70;91.10
53045;DHT22;38930;52.766;6.884;2023-04-03T16:16:04;9.70;91.40
53045;DHT22;38930;52.766;6.884;2023-04-03T16:18:31;9.70;91.70
53045;DHT22;38930;52.766;6.884;2023-04-03T16:20:57;9.70;91.90
53045;DHT22;38930;52.766;6.884;2023-04-03T16:23:23;9.70;91.90
53045;DHT22;38930;52.766;6.884;2023-04-03T16:25:48;9.60;91.90
53045;DHT22;38930;52.766;6.884;2023-04-03T16:28:16;9.60;92.20
53045;DHT22;38930;52.766;6.884;2023-04-03T16:30:44;9.60;92.10
53045;DHT22;38930;52.766;6.884;2023-04-03T16:33:10;9.50;92.60
53045;DHT22;38930;52.766;6.884;2023-04-03T16:35:36;9.50;92.00
53045;DHT22;38930;52.766;6.884;2023-04-03T16:38:02;10.00;92.70
53045;DHT22;38930;52.766;6.884;2023-04-03T16:40:28;9.40;91.70
53045;DHT22;38930;52.766;6.884;2023-04-03T16:42:54;9.50;91.80
53045;DHT22;38930;52.766;6.884;2023-04-03T16:45:20;9.60;92.40
53045;DHT22;38930;52.766;6.884;2023-04-03T16:47:46;9.20;91.90
53045;DHT22;38930;52.766;6.884;2023-04-03T16:50:11;9.10;92.50
53045;DHT22;38930;52.766;6.884;2023-04-03T16:52:37;9.70;92.90
53045;DHT22;38930;52.766;6.884;2023-04-03T16:55:03;9.00;92.40
53045;DHT22;38930;52.766;6.884;2023-04-03T16:57:28;9.00;92.10
53045;DHT22;38930;52.766;6.884;2023-04-03T16:59:54;8.90;92.50
53045;DHT22;38930;52.766;6.884;2023-04-03T17:02:21;8.80;93.00
53045;DHT22;38930;52.766;6.884;2023-04-03T17:04:50;8.70;92.20
53045;DHT22;38930;52.766;6.884;2023-04-03T17:07:18;9.10;91.70
53045;DHT22;38930;52.766;6.884;2023-04-03T17:09:43;8.60;92.50
53045;DHT22;38930;52.766;6.884;2023-04-03T17:12:09;8.70;92.70
53045;DHT22;38930;52.766;6.884;2023-04-03T17:14:35;8.50;92.70
53045;DHT22;38930;52.766;6.884;2023-04-03T17:17:00;8.40;93.50
53045;DHT22;38930;52.766;6.884;2023-04-03T17:19:27;8.60;93.10
53045;DHT22;38930;52.766;6.884;2023-04-03T17:21:53;8.30;92.90
53045;DHT22;38930;52.766;6.884;2023-04-03T17:24:19;8.20;93.10
53045;DHT22;38930;52.766;6.884;2023-04-03T17:26:44;8.20;93.60
53045;DHT22;38930;52.766;6.884;2023-04-03T17:29:10;8.30;93.90
53045;DHT22;38930;52.766;6.884;2023-04-03T17:31:36;8.00;93.40
53045;DHT22;38930;52.766;6.884;2023-04-03T17:34:02;8.10;94.00
53045;DHT22;38930;52.766;6.884;2023-04-03T17:36:29;7.90;94.00
53045;DHT22;38930;52.766;6.884;2023-04-03T17:38:55;7.90;95.50